Details From LSGG - Geneva
To LSZS - Samedan
Flight Number -
Tags generated
Created
Modified
Stats Distance 157 nm / 292 km
Max Altitude 17,800 ft / 5,425 m
Waypoints 3
Social Downloads 0
Likes 0
Share VATSIM

Download

Looking for another format? Having issues loading an existing format? Contact us
Advertisement - Login to hide

Notes

Basic altitude profile: - Ascent Rate: 2500ft/min - Ascent Speed: 250kts - Cruise Altitude: 35000ft - Cruise Speed: 420kts - Descent Rate: 1500ft/min - Descent Speed: 250kts Options: - Use NATs: yes - Use PACOTS: yes - Use low airways: yes - Use high airways: yes

Route

LSGG ALETO LSZS

ID Type Via Altitude Latitude Longitude Leg Dist Tot Dist Heading (true) Name
O LSGG APT - 0 ft / 0 m 46.23775˚ 6.10617˚ - 0 nm - Geneva
ALETO FIX - 17,800 ft / 5,425 m 46.38833˚ 7.87778˚ 74 nm 74 nm 82° / 84° -
O LSZS APT - 0 ft / 0 m 46.53421˚ 9.88394˚ 83 nm 157 nm 83° / 85° Samedan

Altitude Profile

Advertisement - Login to hide

LSGG

Details ICAO LSGG (GVA)
Name Geneva
Region Switzerland
Timezone Europe/Zurich (UTC+2.0)
Stats Elevation 1,410 ft / 430 m (AMSL)
Location 46.237755° 6.106173°
Runways 2
Magnetic Variation 1.791° E

METAR

LSGG 260620Z VRB01KT 9999 VCSH FEW060TCU SCT120 18/13 Q1019 NOSIG

Decode

TAF

TAF AMD LSGG 260639Z 2606/2712 VRB03KT 9999 TS SCT040CB SCT120 TX27/2615Z TN17/2606Z TN15/2705Z BECMG 2609/2611 05007KT SCT035TCU PROB30 TEMPO 2616/2619 VRB15G25KT 4900 TSRA SCT035CB BECMG 2622/2624 VRB03KT 9999 FEW060 BKN090

Decode

Departure Runways

ID Width Length Bearing (true) Bearing (mag) Surface Threshold Offset Overrun Length
05 180 ft / 55 m 12,796 ft / 3,900 m 45.43° 43.64° Concrete 1,079 ft / 329 m 66 ft / 20 m
05L 98 ft / 30 m 2,701 ft / 823 m 45.44° 43.65° Grass 610 ft / 186 m 0 ft / 0 m
23 180 ft / 55 m 12,796 ft / 3,900 m 225.45° 223.66° Concrete 0 ft / 0 m 66 ft / 20 m
23R 98 ft / 30 m 2,701 ft / 823 m 225.45° 223.66° Grass 997 ft / 304 m 0 ft / 0 m

LSZS

Details ICAO LSZS (SMV)
Name Samedan
Region Switzerland
Timezone Europe/Zurich (UTC+2.0)
Stats Elevation 5,600 ft / 1,707 m (AMSL)
Location 46.534207° 9.883938°
Runways 1
Magnetic Variation 2.709° E

METAR

LSZS 260620Z 00000KT CAVOK 07/04 Q1026 RMK B

Decode

TAF

Not found

Destination Runways

ID Width Length Bearing (true) Bearing (mag) Surface Threshold Offset Overrun Length
03 131 ft / 40 m 6,059 ft / 1,847 m 29.10° 26.39° Asphalt 0 ft / 0 m 0 ft / 0 m
21 131 ft / 40 m 6,059 ft / 1,847 m 209.10° 206.39° Asphalt 361 ft / 110 m 0 ft / 0 m

Popular Alternatives